Time;durP1;ratioP1;P1;durP2;ratioP2;P2;SDS_P1;SDS_P2;PMS_P1;PMS_P2;Temp;Humidity;BMP_temperature;BMP_pressure;BME280_temperature;BME280_humidity;BME280_pressure;Samples;Min_cycle;Max_cycle;Signal;HPM_P1;HPM_P2
2021/12/14 00:00:39;;;;;;;20.50;11.10;;;8.40;99.90;;;;;;5095261;28;20023;-85
2021/12/14 00:03:06;;;;;;;19.85;9.98;;;8.40;99.90;;;;;;5095647;28;20047;-84
2021/12/14 00:05:33;;;;;;;16.23;10.30;;;8.40;99.90;;;;;;5095439;28;20057;-84
2021/12/14 00:08:01;;;;;;;18.92;10.68;;;8.40;99.90;;;;;;5076868;28;20024;-85
2021/12/14 00:13:02;;;;;;;17.95;9.80;;;8.40;99.90;;;;;;5095324;28;20039;-85
2021/12/14 00:15:28;;;;;;;19.20;9.88;;;8.40;99.90;;;;;;5077256;28;20028;-84
2021/12/14 00:17:58;;;;;;;17.77;9.80;;;8.30;99.90;;;;;;5094976;28;20031;-84
2021/12/14 00:20:35;;;;;;;;;;;8.30;99.90;;;;;;5077449;28;20024;-84
2021/12/14 00:25:34;;;;;;;18.88;9.63;;;8.30;99.90;;;;;;5094991;28;20032;-85
2021/12/14 00:28:18;;;;;;;16.85;10.13;;;8.30;99.90;;;;;;5077033;28;20035;-84
2021/12/14 00:30:48;;;;;;;20.95;10.63;;;8.30;99.90;;;;;;5095248;28;20024;-84
2021/12/14 00:33:16;;;;;;;18.23;10.43;;;8.30;99.90;;;;;;5076469;28;20552;-84
2021/12/14 00:35:42;;;;;;;17.63;10.23;;;8.40;99.90;;;;;;5076456;28;20028;-84
2021/12/14 00:38:09;;;;;;;19.13;10.75;;;8.30;99.90;;;;;;5094958;28;20013;-84
2021/12/14 00:40:39;;;;;;;19.33;10.63;;;8.30;99.90;;;;;;5076461;28;20075;-84
2021/12/14 00:43:06;;;;;;;16.55;9.98;;;8.30;99.90;;;;;;5094642;28;20032;-85
2021/12/14 00:45:34;;;;;;;19.27;11.35;;;8.30;99.90;;;;;;5076637;28;20039;-84
2021/12/14 00:48:01;;;;;;;17.42;10.93;;;8.30;99.90;;;;;;5094472;28;20065;-85
2021/12/14 00:50:28;;;;;;;17.55;10.52;;;8.20;99.90;;;;;;5076307;28;20032;-85
2021/12/14 00:52:54;;;;;;;19.60;11.82;;;8.30;99.90;;;;;;5094478;28;20024;-85
2021/12/14 00:55:27;;;;;;;23.00;11.02;;;8.20;99.90;;;;;;5094404;28;20183;-84
2021/12/14 00:57:54;;;;;;;20.70;11.48;;;8.20;99.90;;;;;;5076527;28;20027;-84
2021/12/14 01:00:23;;;;;;;20.77;11.20;;;8.20;99.90;;;;;;5094348;28;20468;-84
2021/12/14 01:02:49;;;;;;;19.63;10.98;;;8.20;99.90;;;;;;5076237;28;20024;-84
2021/12/14 01:05:21;;;;;;;18.63;11.63;;;8.20;99.90;;;;;;5094461;28;20466;-84
2021/12/14 01:07:48;;;;;;;20.30;10.98;;;8.20;99.90;;;;;;5075941;28;20472;-85
2021/12/14 01:10:29;;;;;;;21.02;11.13;;;8.30;99.90;;;;;;5076418;28;20016;-84
2021/12/14 01:13:00;;;;;;;21.02;11.95;;;8.30;99.90;;;;;;5094719;28;20391;-84
2021/12/14 01:15:52;;;;;;;19.65;11.50;;;8.20;99.90;;;;;;5094911;28;20016;-84
2021/12/14 01:18:46;;;;;;;19.50;11.55;;;8.30;99.90;;;;;;5076624;28;20422;-84
2021/12/14 01:21:40;;;;;;;19.42;11.68;;;8.20;99.90;;;;;;5076693;28;20036;-84
2021/12/14 01:24:22;;;;;;;21.35;11.25;;;8.30;99.90;;;;;;5074509;28;20098;-84
2021/12/14 01:26:48;;;;;;;19.42;11.05;;;8.30;99.90;;;;;;5092312;28;20024;-84
2021/12/14 01:29:16;;;;;;;20.35;11.48;;;8.30;99.90;;;;;;5076166;28;20382;-84
2021/12/14 01:31:43;;;;;;;20.02;11.25;;;8.30;99.90;;;;;;5094441;28;20016;-84
2021/12/14 01:34:18;;;;;;;19.95;12.18;;;8.30;99.90;;;;;;5076325;28;20460;-84
2021/12/14 01:36:49;;;;;;;21.40;11.93;;;8.30;99.90;;;;;;5094311;28;20475;-84
2021/12/14 01:42:03;;;;;;;19.35;11.88;;;8.40;99.90;;;;;;5094783;28;20479;-84
2021/12/14 01:44:32;;;;;;;21.70;12.75;;;8.30;99.90;;;;;;5094656;28;20542;-84
2021/12/14 01:47:05;;;;;;;23.25;12.40;;;8.30;99.90;;;;;;5094437;28;20020;-84
2021/12/14 01:49:47;;;;;;;18.45;11.30;;;8.40;99.90;;;;;;5076039;28;20047;-84
2021/12/14 01:52:25;;;;;;;22.83;12.25;;;8.40;99.90;;;;;;5076094;28;20024;-84
2021/12/14 01:54:56;;;;;;;21.67;11.80;;;8.40;99.90;;;;;;5094107;28;20036;-85
2021/12/14 01:57:26;;;;;;;22.42;12.30;;;8.40;99.90;;;;;;5094114;28;20024;-84
2021/12/14 01:59:56;;;;;;;23.73;11.88;;;8.40;99.90;;;;;;5075959;28;20028;-84
2021/12/14 02:02:42;;;;;;;21.50;11.88;;;8.40;99.90;;;;;;5076111;28;20040;-85
2021/12/14 02:05:20;;;;;;;21.08;12.88;;;8.40;99.90;;;;;;5094104;28;20020;-85
2021/12/14 02:07:46;;;;;;;20.42;11.65;;;8.30;99.90;;;;;;5093908;28;20039;-84
2021/12/14 02:10:22;;;;;;;22.10;12.60;;;8.40;99.90;;;;;;5075822;28;20021;-84
2021/12/14 02:12:49;;;;;;;23.25;12.25;;;8.30;99.90;;;;;;5093862;28;20422;-84
2021/12/14 02:15:23;;;;;;;22.45;11.48;;;8.10;99.90;;;;;;5075991;28;20020;-84
2021/12/14 02:17:56;;;;;;;23.95;12.25;;;8.10;99.90;;;;;;5094137;28;20032;-84
2021/12/14 02:20:29;;;;;;;23.13;12.35;;;8.20;99.90;;;;;;5079623;28;20024;-84
2021/12/14 02:22:56;;;;;;;26.70;12.48;;;8.20;99.90;;;;;;5079816;28;20029;-84
2021/12/14 02:25:22;;;;;;;25.23;13.70;;;8.20;99.90;;;;;;5079465;28;20016;-84
2021/12/14 02:28:26;;;;;;;22.38;12.90;;;8.30;99.90;;;;;;5097378;28;20024;-84
2021/12/14 02:30:54;;;;;;;25.65;12.65;;;8.30;99.90;;;;;;5097320;28;20060;-84
2021/12/14 02:33:26;;;;;;;22.15;12.77;;;8.30;99.90;;;;;;5097268;28;20043;-84
2021/12/14 02:36:16;;;;;;;22.92;12.80;;;8.30;99.90;;;;;;5079078;28;20028;-84
2021/12/14 02:38:45;;;;;;;23.48;13.52;;;8.30;99.90;;;;;;5079339;28;20031;-84
2021/12/14 02:41:11;;;;;;;24.45;12.82;;;8.20;99.90;;;;;;5097021;28;20063;-84
2021/12/14 02:43:45;;;;;;;27.65;13.35;;;8.20;99.90;;;;;;5079055;28;20476;-84
2021/12/14 02:46:17;;;;;;;24.58;13.32;;;8.10;99.90;;;;;;5097390;28;20032;-84
2021/12/14 02:48:49;;;;;;;24.10;13.32;;;8.30;99.90;;;;;;5097026;28;20020;-84
2021/12/14 02:51:22;;;;;;;27.67;14.80;;;8.30;99.90;;;;;;5097159;28;20062;-84
2021/12/14 02:53:51;;;;;;;25.45;14.02;;;8.30;99.90;;;;;;5096490;28;20024;-85
2021/12/14 02:56:21;;;;;;;25.08;13.95;;;8.40;99.90;;;;;;5096985;28;20468;-84
2021/12/14 02:58:48;;;;;;;26.63;14.80;;;8.30;99.90;;;;;;5078435;28;20028;-85
2021/12/14 03:01:16;;;;;;;26.02;14.13;;;8.40;99.90;;;;;;5078784;28;20038;-85
2021/12/14 03:03:42;;;;;;;29.65;14.82;;;8.30;99.90;;;;;;5078487;28;20032;-84
2021/12/14 03:06:10;;;;;;;27.25;14.13;;;8.30;99.90;;;;;;5078518;28;20031;-84
2021/12/14 03:08:44;;;;;;;30.17;14.32;;;8.30;99.90;;;;;;5096615;28;20023;-85
2021/12/14 03:11:11;;;;;;;30.38;15.30;;;8.20;99.90;;;;;;5078716;28;20051;-84
2021/12/14 03:13:51;;;;;;;29.50;14.85;;;8.20;99.90;;;;;;5078829;28;20024;-84
2021/12/14 03:16:31;;;;;;;24.83;13.23;;;8.20;99.90;;;;;;5078632;28;20016;-84
2021/12/14 03:18:58;;;;;;;29.77;14.73;;;8.40;99.90;;;;;;5096523;28;20119;-84
2021/12/14 03:21:27;;;;;;;29.95;14.85;;;8.30;99.90;;;;;;5096337;28;20331;-84
2021/12/14 03:24:06;;;;;;;29.10;15.43;;;8.40;99.90;;;;;;5078163;28;20471;-84
2021/12/14 03:26:34;;;;;;;31.15;16.33;;;8.40;99.90;;;;;;5096504;28;20047;-84
2021/12/14 03:29:09;;;;;;;30.05;16.05;;;8.40;99.90;;;;;;5078090;28;20432;-84
2021/12/14 03:31:42;;;;;;;32.72;16.00;;;8.40;99.90;;;;;;5077351;28;20055;-84
2021/12/14 03:34:09;;;;;;;26.58;15.00;;;8.30;1.00;;;;;;5096022;28;20044;-84
2021/12/14 03:36:43;;;;;;;34.60;15.82;;;8.30;1.00;;;;;;5095804;28;20026;-84
2021/12/14 03:39:20;;;;;;;27.08;14.70;;;8.50;1.00;;;;;;5096078;28;20387;-84
2021/12/14 03:42:18;;;;;;;30.08;15.43;;;8.50;1.00;;;;;;5095542;28;20135;-84
2021/12/14 03:44:52;;;;;;;33.10;16.27;;;8.30;1.00;;;;;;5079046;28;20055;-85
2021/12/14 03:47:25;;;;;;;29.60;14.68;;;8.40;99.90;;;;;;5095882;28;20027;-85
2021/12/14 03:50:07;;;;;;;28.83;14.88;;;8.50;1.00;;;;;;5095721;28;20035;-85
2021/12/14 03:52:35;;;;;;;36.88;16.58;;;8.40;1.00;;;;;;5077431;28;20032;-84
2021/12/14 03:55:07;;;;;;;28.52;15.00;;;8.40;1.00;;;;;;5095739;28;20067;-84
2021/12/14 03:57:33;;;;;;;30.38;15.63;;;8.40;1.00;;;;;;5077620;28;20028;-84
2021/12/14 04:00:00;;;;;;;33.17;15.85;;;8.40;1.00;;;;;;5095694;28;20091;-84
2021/12/14 04:02:26;;;;;;;25.75;14.10;;;8.40;1.00;;;;;;5095670;28;20024;-84
2021/12/14 04:05:03;;;;;;;31.15;15.98;;;8.40;1.00;;;;;;5096184;28;20024;-84
2021/12/14 04:07:29;;;;;;;31.33;14.95;;;8.40;1.00;;;;;;5077377;28;20196;-84
2021/12/14 04:09:55;;;;;;;28.90;15.02;;;8.40;1.00;;;;;;5095443;28;20539;-84
2021/12/14 04:12:21;;;;;;;30.48;14.10;;;8.40;1.00;;;;;;5095387;28;20115;-85
2021/12/14 04:14:52;;;;;;;30.40;14.48;;;8.40;1.00;;;;;;5095518;28;20027;-84
2021/12/14 04:17:18;;;;;;;;;;;8.40;1.00;;;;;;5095891;28;20024;-84
2021/12/14 04:19:44;;;;;;;31.77;13.68;;;8.50;1.00;;;;;;5095275;28;20473;-84
2021/12/14 04:22:17;;;;;;;32.92;15.60;;;8.40;1.00;;;;;;5077134;28;20060;-84
2021/12/14 04:24:45;;;;;;;31.77;14.98;;;8.40;1.00;;;;;;5077180;28;20035;-84
2021/12/14 04:27:15;;;;;;;33.65;16.27;;;8.50;1.00;;;;;;5077489;28;20028;-84
2021/12/14 04:29:41;;;;;;;34.20;17.20;;;8.50;1.00;;;;;;5095259;28;20549;-84
2021/12/14 04:32:09;;;;;;;28.60;15.20;;;8.40;1.00;;;;;;5095203;28;20035;-84
2021/12/14 04:34:35;;;;;;;33.35;15.85;;;8.40;1.00;;;;;;5095104;28;20032;-84
2021/12/14 04:37:02;;;;;;;31.67;16.52;;;8.50;1.00;;;;;;5077110;28;20038;-84
2021/12/14 04:39:42;;;;;;;31.95;16.20;;;8.50;1.00;;;;;;5077243;28;20027;-84
2021/12/14 04:53:49;;;;;;;32.88;15.18;;;8.50;1.00;;;;;;5095078;28;20109;-84
2021/12/14 04:56:20;;;;;;;32.97;15.55;;;8.60;1.00;;;;;;5094645;28;20025;-85
2021/12/14 04:58:51;;;;;;;28.65;14.82;;;8.60;1.00;;;;;;5095121;28;20039;-84
2021/12/14 05:01:17;;;;;;;32.30;16.10;;;8.60;1.00;;;;;;5095257;28;20028;-84
2021/12/14 05:04:05;;;;;;;30.75;16.20;;;8.60;1.00;;;;;;5077046;28;20058;-85
2021/12/14 05:06:48;;;;;;;33.88;15.90;;;8.40;1.00;;;;;;5076443;28;20024;-84
2021/12/14 05:09:21;;;;;;;31.63;16.08;;;8.40;1.00;;;;;;5094867;28;20021;-84
2021/12/14 05:11:49;;;;;;;36.80;16.48;;;8.50;1.00;;;;;;5095158;28;20032;-84
2021/12/14 05:14:15;;;;;;;35.63;16.50;;;8.50;1.00;;;;;;5076290;28;20102;-84
2021/12/14 05:16:41;;;;;;;30.77;15.85;;;8.50;1.00;;;;;;5094744;28;20741;-84
2021/12/14 05:19:09;;;;;;;35.45;16.65;;;8.40;19.90;;;;;;5094458;28;20122;-84
2021/12/14 05:21:46;;;;;;;34.03;16.08;;;8.60;23.20;;;;;;5076246;28;20016;-84
2021/12/14 05:24:16;;;;;;;34.67;16.90;;;8.50;16.50;;;;;;5076696;28;20055;-84
2021/12/14 05:26:44;;;;;;;33.90;16.45;;;8.50;3.50;;;;;;5094275;28;20528;-84
2021/12/14 05:29:10;;;;;;;37.90;17.75;;;8.50;1.00;;;;;;5094140;28;20096;-83
2021/12/14 05:31:48;;;;;;;42.00;17.42;;;8.40;1.00;;;;;;5075782;28;20389;-83
2021/12/14 05:34:15;;;;;;;37.13;18.05;;;8.40;9.20;;;;;;5094181;28;20028;-83
2021/12/14 05:36:43;;;;;;;39.03;17.38;;;8.50;37.90;;;;;;5094069;28;20028;-83
2021/12/14 05:39:25;;;;;;;35.10;17.63;;;8.50;51.50;;;;;;5094324;28;20020;-84
2021/12/14 05:44:33;;;;;;;37.60;17.65;;;8.50;99.90;;;;;;5091028;28;20036;-85
2021/12/14 05:47:03;;;;;;;34.30;16.20;;;8.50;99.90;;;;;;5076437;28;20031;-85
2021/12/14 05:49:29;;;;;;;33.92;15.65;;;8.50;99.90;;;;;;5056519;28;20032;-85
2021/12/14 05:51:57;;;;;;;34.80;16.60;;;8.50;99.90;;;;;;5061805;28;20020;-86
2021/12/14 05:54:26;;;;;;;34.90;16.80;;;8.50;99.90;;;;;;5072964;28;20021;-85
2021/12/14 05:56:54;;;;;;;37.22;17.75;;;8.40;99.90;;;;;;5097506;28;20028;-85
2021/12/14 05:59:22;;;;;;;38.03;18.13;;;8.40;99.90;;;;;;5071932;28;20029;-86
2021/12/14 06:01:49;;;;;;;39.63;18.42;;;8.40;99.90;;;;;;5080610;28;20020;-83
2021/12/14 06:04:15;;;;;;;40.72;17.90;;;8.40;99.90;;;;;;5079083;28;20020;-83
2021/12/14 06:06:47;;;;;;;45.88;17.50;;;8.50;99.90;;;;;;5079255;28;20426;-81
2021/12/14 06:09:19;;;;;;;40.03;17.70;;;8.50;99.90;;;;;;5079523;28;20039;-82
2021/12/14 06:11:48;;;;;;;43.20;17.48;;;8.50;99.90;;;;;;5079307;28;20539;-84
2021/12/14 06:14:20;;;;;;;41.08;16.27;;;8.40;99.90;;;;;;5097618;28;20024;-84
2021/12/14 06:17:16;;;;;;;37.67;17.23;;;8.40;99.90;;;;;;5075965;28;20020;-84
2021/12/14 06:19:48;;;;;;;38.00;17.38;;;8.50;99.90;;;;;;5084245;28;20048;-84
2021/12/14 06:22:41;;;;;;;46.60;18.55;;;8.40;99.90;;;;;;5070882;28;20426;-84
2021/12/14 06:25:11;;;;;;;35.80;16.67;;;8.60;99.90;;;;;;5077248;28;20031;-84
2021/12/14 06:27:40;;;;;;;40.38;18.42;;;8.60;99.90;;;;;;5097257;28;20365;-84
2021/12/14 06:30:08;;;;;;;37.67;16.77;;;8.50;99.90;;;;;;5097182;28;20089;-85
2021/12/14 06:32:44;;;;;;;33.70;16.85;;;8.60;99.90;;;;;;5078995;28;20495;-85
2021/12/14 06:35:27;;;;;;;44.75;17.77;;;8.60;99.90;;;;;;5096917;28;20020;-84
2021/12/14 06:40:48;;;;;;;36.88;16.13;;;8.60;99.90;;;;;;5076808;28;20240;-84
2021/12/14 06:43:17;;;;;;;41.33;17.70;;;8.40;99.90;;;;;;5075230;28;20451;-85
2021/12/14 06:46:12;;;;;;;37.50;16.48;;;8.60;99.90;;;;;;5093620;28;20088;-85
2021/12/14 06:49:06;;;;;;;36.22;17.70;;;8.40;99.90;;;;;;5094710;28;20526;-84
2021/12/14 06:51:42;;;;;;;42.70;17.20;;;8.60;99.90;;;;;;5094987;28;20028;-84
2021/12/14 06:54:11;;;;;;;35.75;16.80;;;8.60;99.90;;;;;;5096419;28;20024;-84
2021/12/14 06:56:38;;;;;;;43.85;17.40;;;8.50;99.90;;;;;;5078033;28;20020;-85
2021/12/14 06:59:10;;;;;;;38.20;15.82;;;8.60;99.90;;;;;;5079347;28;20108;-85
2021/12/14 07:01:55;;;;;;;38.97;17.08;;;8.50;99.90;;;;;;5058461;28;20052;-85
2021/12/14 07:04:27;;;;;;;38.15;16.80;;;8.50;99.90;;;;;;5076378;28;20024;-85
2021/12/14 07:07:03;;;;;;;35.95;16.88;;;8.50;99.90;;;;;;5075437;28;20028;-85
2021/12/14 07:09:33;;;;;;;43.00;17.13;;;8.60;99.90;;;;;;5086061;28;20110;-84
2021/12/14 07:12:01;;;;;;;;;;;8.70;99.90;;;;;;5096790;28;20368;-85
2021/12/14 07:14:27;;;;;;;44.95;17.75;;;8.70;99.90;;;;;;5095874;28;20005;-84
2021/12/14 07:16:55;;;;;;;33.00;15.95;;;8.60;99.90;;;;;;5095952;28;20052;-84
2021/12/14 07:19:45;;;;;;;36.58;15.75;;;8.70;99.90;;;;;;5095950;28;20040;-84
2021/12/14 07:22:41;;;;;;;33.13;15.63;;;8.70;99.90;;;;;;5077713;28;20081;-84
2021/12/14 07:25:18;;;;;;;37.40;15.82;;;8.50;99.90;;;;;;5088781;28;20061;-84
2021/12/14 07:27:54;;;;;;;39.15;16.48;;;8.70;99.90;;;;;;5077618;28;20463;-84
2021/12/14 07:30:37;;;;;;;38.83;15.52;;;8.60;99.90;;;;;;5095516;28;20035;-84
2021/12/14 07:33:28;;;;;;;36.58;15.52;;;8.70;99.90;;;;;;5095544;28;20032;-84
2021/12/14 07:35:59;;;;;;;42.50;16.40;;;8.70;99.90;;;;;;5095404;28;20069;-84
2021/12/14 07:38:33;;;;;;;37.47;16.25;;;8.70;99.90;;;;;;5077630;28;20024;-84
2021/12/14 07:41:27;;;;;;;41.63;16.42;;;8.60;99.90;;;;;;5095210;28;20150;-84
2021/12/14 07:44:10;;;;;;;41.30;16.98;;;8.70;99.90;;;;;;5077298;28;20523;-84
2021/12/14 07:46:43;;;;;;;42.08;16.35;;;8.60;99.90;;;;;;5069010;28;20035;-85
2021/12/14 07:49:20;;;;;;;40.60;16.05;;;8.70;99.90;;;;;;5095411;28;20032;-85
2021/12/14 07:51:48;;;;;;;41.47;17.17;;;8.70;99.90;;;;;;5095270;28;20035;-84
2021/12/14 07:54:27;;;;;;;40.95;16.50;;;8.70;99.90;;;;;;5071234;28;20035;-84
2021/12/14 07:56:59;;;;;;;39.88;16.75;;;8.70;99.90;;;;;;5093826;28;20056;-84
2021/12/14 07:59:30;;;;;;;45.95;15.20;;;8.70;99.90;;;;;;5095433;28;20503;-84
2021/12/14 08:02:18;;;;;;;35.90;16.17;;;8.80;99.90;;;;;;5094045;28;20081;-84
2021/12/14 08:04:48;;;;;;;37.13;16.15;;;8.80;99.90;;;;;;5089999;28;20040;-85
2021/12/14 08:07:23;;;;;;;39.17;18.38;;;8.70;99.90;;;;;;5094429;28;20024;-84
2021/12/14 08:09:51;;;;;;;46.80;16.38;;;8.70;99.90;;;;;;5094236;28;20028;-84
2021/12/14 08:12:46;;;;;;;39.13;16.95;;;8.80;99.90;;;;;;5089102;28;20020;-84
2021/12/14 08:15:37;;;;;;;42.22;16.58;;;8.90;99.90;;;;;;5090893;28;20096;-85
2021/12/14 08:18:36;;;;;;;40.00;16.77;;;8.80;99.90;;;;;;5076928;28;20376;-84
2021/12/14 08:21:10;;;;;;;35.58;15.65;;;8.90;99.90;;;;;;5053697;28;20239;-84
2021/12/14 08:23:39;;;;;;;39.38;15.85;;;8.90;99.90;;;;;;5093987;28;20028;-84
2021/12/14 08:26:15;;;;;;;45.83;17.17;;;8.80;99.90;;;;;;5085934;28;20111;-84
2021/12/14 08:28:51;;;;;;;49.00;17.20;;;8.90;99.90;;;;;;5090153;28;20039;-84
2021/12/14 08:31:18;;;;;;;41.95;18.05;;;8.80;99.90;;;;;;5088930;28;20020;-85
2021/12/14 08:33:51;;;;;;;44.22;16.88;;;9.00;99.90;;;;;;5087336;28;20017;-84
2021/12/14 08:36:17;;;;;;;44.53;17.83;;;8.90;99.90;;;;;;5086424;28;20016;-85
2021/12/14 08:38:43;;;;;;;42.60;17.15;;;8.80;99.90;;;;;;5090492;28;20122;-85
2021/12/14 08:41:17;;;;;;;48.60;17.33;;;9.00;99.90;;;;;;5085769;28;20040;-84
2021/12/14 08:43:50;;;;;;;39.33;16.75;;;8.90;99.90;;;;;;5079246;28;20028;-85
2021/12/14 08:46:22;;;;;;;39.85;15.80;;;8.90;99.90;;;;;;5082178;28;20456;-85
2021/12/14 08:49:00;;;;;;;33.72;15.07;;;9.00;99.90;;;;;;5061821;28;20028;-85
2021/12/14 08:51:42;;;;;;;38.17;15.63;;;9.00;99.90;;;;;;5081973;28;20031;-84
2021/12/14 08:54:08;;;;;;;38.10;15.23;;;8.90;99.90;;;;;;5083781;28;20065;-84
2021/12/14 08:56:40;;;;;;;36.55;14.90;;;9.00;99.90;;;;;;5079877;28;20054;-85
2021/12/14 08:59:07;;;;;;;38.83;15.70;;;9.00;99.90;;;;;;5079926;28;20044;-84
2021/12/14 09:01:34;;;;;;;41.53;15.35;;;9.10;99.90;;;;;;5087718;28;20023;-84
2021/12/14 09:04:10;;;;;;;39.63;16.02;;;9.00;99.90;;;;;;5077285;28;20024;-84
2021/12/14 09:06:38;;;;;;;36.80;15.82;;;9.00;99.90;;;;;;5057365;28;20100;-84
2021/12/14 09:09:07;;;;;;;38.33;15.82;;;9.00;99.90;;;;;;5086586;28;20020;-84
2021/12/14 09:11:36;;;;;;;37.03;15.98;;;9.20;99.90;;;;;;5093177;28;20030;-84
2021/12/14 09:14:09;;;;;;;37.28;15.02;;;9.10;99.90;;;;;;5075166;28;20024;-85
2021/12/14 09:16:35;;;;;;;33.42;14.95;;;9.20;99.90;;;;;;5093528;28;20024;-85
2021/12/14 09:19:13;;;;;;;36.47;15.60;;;9.30;99.90;;;;;;5093118;28;20028;-85
2021/12/14 09:21:44;;;;;;;40.08;15.70;;;9.30;99.90;;;;;;5070642;28;20043;-85
2021/12/14 09:24:14;;;;;;;35.30;15.02;;;9.20;99.90;;;;;;5093140;28;20487;-85
2021/12/14 09:26:42;;;;;;;32.22;14.48;;;9.20;99.90;;;;;;5093052;28;20020;-85
2021/12/14 09:29:12;;;;;;;44.45;17.35;;;9.40;99.90;;;;;;5076829;28;20029;-85
2021/12/14 09:31:40;;;;;;;39.50;15.75;;;9.40;99.90;;;;;;5078968;28;20081;-85
2021/12/14 09:34:09;;;;;;;32.50;14.95;;;9.20;99.90;;;;;;5097071;28;20073;-85
2021/12/14 09:36:35;;;;;;;39.70;16.23;;;9.20;99.90;;;;;;5079034;28;20027;-85
2021/12/14 09:39:17;;;;;;;40.72;15.98;;;9.40;99.90;;;;;;5078849;28;20121;-85
2021/12/14 09:41:45;;;;;;;38.78;15.90;;;9.30;99.90;;;;;;5096670;28;20044;-85
2021/12/14 09:44:14;;;;;;;38.03;14.98;;;9.40;99.90;;;;;;5079880;28;20089;-85
2021/12/14 09:46:40;;;;;;;36.17;14.65;;;9.30;99.90;;;;;;5078861;28;20025;-85
2021/12/14 09:49:08;;;;;;;36.50;15.10;;;9.50;99.90;;;;;;5078898;28;20028;-85
2021/12/14 09:51:59;;;;;;;34.90;15.60;;;9.40;99.90;;;;;;5097100;28;20533;-85
2021/12/14 09:54:26;;;;;;;;;;;9.50;99.90;;;;;;5089806;28;20039;-85
2021/12/14 09:56:58;;;;;;;34.42;14.52;;;9.40;99.90;;;;;;5061599;28;20587;-85
2021/12/14 09:59:24;;;;;;;32.65;13.27;;;9.40;99.90;;;;;;5077841;28;20103;-84
2021/12/14 10:02:01;;;;;;;33.13;13.45;;;9.50;99.90;;;;;;5080098;28;20059;-85
2021/12/14 10:04:34;;;;;;;32.25;14.10;;;9.60;99.90;;;;;;5072974;28;20036;-85
2021/12/14 10:07:03;;;;;;;26.95;12.48;;;9.40;99.90;;;;;;5094303;28;20110;-85
2021/12/14 10:09:43;;;;;;;27.48;11.23;;;9.50;99.90;;;;;;5084916;28;20021;-85
2021/12/14 10:15:05;;;;;;;24.77;11.35;;;9.60;99.90;;;;;;5094474;28;20028;-85
2021/12/14 10:17:31;;;;;;;21.48;10.50;;;9.60;99.90;;;;;;5058534;28;20029;-85
2021/12/14 10:19:56;;;;;;;25.52;11.40;;;9.60;99.90;;;;;;5087938;28;20085;-85
2021/12/14 10:22:26;;;;;;;21.05;10.13;;;9.70;99.90;;;;;;5078254;28;20024;-85
2021/12/14 10:25:00;;;;;;;22.25;10.55;;;9.70;99.90;;;;;;5096299;28;20411;-85
2021/12/14 10:27:53;;;;;;;21.90;10.55;;;9.70;99.90;;;;;;5089563;28;20491;-85
2021/12/14 10:30:41;;;;;;;21.00;9.98;;;9.90;99.90;;;;;;5078873;28;20086;-85
2021/12/14 10:33:08;;;;;;;16.40;8.90;;;9.80;99.90;;;;;;5074865;28;20499;-85
2021/12/14 10:35:45;;;;;;;15.27;8.02;;;9.90;99.90;;;;;;5078433;28;20043;-85
2021/12/14 10:38:26;;;;;;;15.90;7.47;;;9.90;99.90;;;;;;5078146;28;20036;-85
2021/12/14 10:43:46;;;;;;;14.75;7.07;;;9.90;99.90;;;;;;5096233;28;20494;-85
2021/12/14 10:46:24;;;;;;;12.75;7.10;;;10.00;99.90;;;;;;5078007;28;20020;-86
2021/12/14 10:48:51;;;;;;;14.65;6.85;;;10.00;61.00;;;;;;5096158;28;20063;-87
2021/12/14 10:51:21;;;;;;;12.48;7.10;;;10.10;40.50;;;;;;5077790;28;20025;-86
2021/12/14 10:53:50;;;;;;;14.98;7.70;;;10.10;1.00;;;;;;5076926;28;20383;-85
2021/12/14 10:56:21;;;;;;;12.93;7.50;;;10.10;73.80;;;;;;5067984;28;20020;-85
2021/12/14 10:58:49;;;;;;;13.32;7.78;;;9.90;1.00;;;;;;5083225;28;20031;-85
2021/12/14 11:01:25;;;;;;;12.35;7.30;;;10.10;1.00;;;;;;5079173;28;20025;-85
2021/12/14 11:03:56;;;;;;;11.82;6.95;;;10.00;1.00;;;;;;5069956;28;20023;-85
2021/12/14 11:06:27;;;;;;;;;;;10.00;1.00;;;;;;5077468;28;20032;-85
2021/12/14 11:11:43;;;;;;;11.18;7.07;;;10.20;1.00;;;;;;5082785;28;20453;-85
2021/12/14 11:14:13;;;;;;;13.55;6.72;;;10.10;1.00;;;;;;5065759;28;20458;-85
2021/12/14 11:19:35;;;;;;;11.30;5.72;;;10.10;1.00;;;;;;5080739;28;19915;-85
2021/12/14 11:22:19;;;;;;;10.98;5.13;;;10.10;1.00;;;;;;5085336;28;20032;-85
2021/12/14 11:24:52;;;;;;;8.65;5.70;;;10.20;99.90;;;;;;5068413;28;20043;-85
2021/12/14 11:27:21;;;;;;;9.23;4.80;;;10.40;99.90;;;;;;5080766;28;20094;-85
2021/12/14 11:29:55;;;;;;;9.85;5.82;;;10.40;99.90;;;;;;5083974;28;20511;-85
2021/12/14 11:32:24;;;;;;;10.50;5.68;;;10.20;99.90;;;;;;5076790;28;20028;-85
2021/12/14 11:34:50;;;;;;;10.32;5.60;;;10.30;99.90;;;;;;5081656;28;20024;-85
2021/12/14 11:37:22;;;;;;;10.18;5.18;;;10.20;99.90;;;;;;5092138;28;20516;-85
2021/12/14 11:39:52;;;;;;;8.93;5.43;;;10.30;99.90;;;;;;5073242;28;20024;-85
2021/12/14 11:42:22;;;;;;;9.63;5.57;;;10.50;99.90;;;;;;5087146;28;20063;-85
2021/12/14 11:45:07;;;;;;;9.02;5.43;;;10.60;99.90;;;;;;5092714;28;20051;-85
2021/12/14 11:50:10;;;;;;;8.70;4.88;;;10.60;99.90;;;;;;5091143;28;20363;-85
2021/12/14 11:53:00;;;;;;;7.75;5.45;;;10.60;99.90;;;;;;5081545;28;20025;-85
2021/12/14 11:55:29;;;;;;;9.90;4.85;;;10.60;99.90;;;;;;5068154;28;20024;-85
2021/12/14 11:58:19;;;;;;;8.20;4.63;;;10.70;99.90;;;;;;5074016;28;20031;-85
2021/12/14 12:00:58;;;;;;;9.07;5.18;;;10.60;99.90;;;;;;5074263;28;20047;-85
2021/12/14 12:03:32;;;;;;;9.20;4.90;;;10.60;99.90;;;;;;5092477;28;20109;-85
2021/12/14 12:06:15;;;;;;;10.10;5.05;;;10.70;99.90;;;;;;5093048;28;20355;-85
2021/12/14 12:11:37;;;;;;;11.90;5.72;;;10.60;99.90;;;;;;5085725;28;20043;-86
2021/12/14 12:14:17;;;;;;;10.35;5.90;;;10.60;99.90;;;;;;5084303;28;20032;-86
2021/12/14 12:16:44;;;;;;;12.48;5.47;;;10.70;99.90;;;;;;5074410;28;20039;-86
2021/12/14 12:19:22;;;;;;;13.40;6.43;;;10.60;99.90;;;;;;5092907;28;20459;-86
2021/12/14 12:21:51;;;;;;;16.75;6.35;;;10.70;99.90;;;;;;5073990;28;20036;-85
2021/12/14 12:24:49;;;;;;;14.27;6.97;;;10.60;99.90;;;;;;5074296;28;20036;-85
2021/12/14 12:27:28;;;;;;;14.48;6.32;;;10.70;99.90;;;;;;5074358;28;20535;-85
2021/12/14 12:30:09;;;;;;;16.70;6.97;;;10.70;99.90;;;;;;5092443;28;20031;-85
2021/12/14 12:32:36;;;;;;;17.40;6.82;;;10.70;99.90;;;;;;5067245;28;20020;-85
2021/12/14 12:35:19;;;;;;;14.50;7.15;;;10.70;99.90;;;;;;5092316;28;20032;-86
2021/12/14 12:37:45;;;;;;;14.63;7.60;;;10.80;99.90;;;;;;5070616;28;20050;-86
2021/12/14 12:40:17;;;;;;;15.30;8.65;;;10.70;99.90;;;;;;5094786;28;20467;-85
2021/12/14 12:42:44;;;;;;;18.35;9.30;;;10.80;99.90;;;;;;5094215;28;20064;-85
2021/12/14 12:45:33;;;;;;;17.13;8.20;;;10.70;99.90;;;;;;5092053;28;20032;-86
2021/12/14 12:48:01;;;;;;;19.13;9.82;;;10.70;99.90;;;;;;5091716;28;20504;-85
2021/12/14 12:50:27;;;;;;;26.42;12.98;;;10.70;99.90;;;;;;5073136;28;20495;-85
2021/12/14 12:52:53;;;;;;;30.15;16.67;;;10.80;99.90;;;;;;5073651;28;20036;-85
2021/12/14 12:55:30;;;;;;;18.92;11.25;;;10.80;99.90;;;;;;5091951;28;20039;-85
2021/12/14 12:58:12;;;;;;;11.98;7.55;;;10.80;99.90;;;;;;5074012;28;20028;-85
2021/12/14 13:00:52;;;;;;;9.35;7.07;;;10.70;99.90;;;;;;5066467;28;20396;-85
2021/12/14 13:03:31;;;;;;;12.40;7.47;;;10.60;99.90;;;;;;5073267;28;20032;-86
2021/12/14 13:05:56;;;;;;;8.63;6.10;;;10.60;99.90;;;;;;5074209;28;20036;-85
2021/12/14 13:09:02;;;;;;;11.07;6.38;;;10.70;99.90;;;;;;5073800;28;20035;-85
2021/12/14 13:11:30;;;;;;;8.55;4.72;;;10.70;99.90;;;;;;5090434;28;20388;-85
2021/12/14 13:14:12;;;;;;;9.80;5.63;;;10.60;1.00;;;;;;5092116;28;20031;-85
2021/12/14 13:16:49;;;;;;;8.65;4.68;;;10.50;1.00;;;;;;5091088;28;20036;-86
2021/12/14 13:19:18;;;;;;;8.55;4.63;;;10.60;1.00;;;;;;5088224;28;20057;-85
2021/12/14 13:21:59;;;;;;;10.18;5.18;;;10.50;1.00;;;;;;5087275;28;20019;-85
2021/12/14 13:24:32;;;;;;;15.93;6.22;;;10.50;1.00;;;;;;5089710;28;20035;-85
2021/12/14 13:27:12;;;;;;;11.15;7.40;;;10.60;1.00;;;;;;5073683;28;20036;-85
2021/12/14 13:29:46;;;;;;;6.50;3.65;;;10.60;1.00;;;;;;5073445;28;20039;-85
2021/12/14 13:32:39;;;;;;;8.02;4.70;;;10.60;99.90;;;;;;5073519;28;20492;-86
2021/12/14 13:35:07;;;;;;;12.52;5.30;;;10.60;99.90;;;;;;5074042;28;20028;-85
2021/12/14 13:37:42;;;;;;;14.80;5.90;;;10.60;99.90;;;;;;5073405;28;20498;-85
2021/12/14 13:40:16;;;;;;;13.70;5.68;;;10.70;99.90;;;;;;5070247;28;20101;-86
2021/12/14 13:42:48;;;;;;;10.65;5.00;;;10.60;99.90;;;;;;5069910;28;20032;-85
2021/12/14 13:45:21;;;;;;;13.52;4.50;;;10.70;99.90;;;;;;5069834;28;20031;-86
2021/12/14 13:47:48;;;;;;;7.93;4.65;;;10.70;99.90;;;;;;5047080;28;20024;-86
2021/12/14 13:50:19;;;;;;;12.20;5.18;;;10.70;99.90;;;;;;5053100;28;20059;-86
2021/12/14 13:52:45;;;;;;;14.07;5.18;;;10.70;99.90;;;;;;5071828;28;20440;-85